sensor_id;sensor_type;location;lat;lon;timestamp;pressure;altitude;pressure_sealevel;temperature;humidity
46598;BME280;32318;48.858;8.252;2023-06-04T00:06:11;100216.75;;;17.13;51.64
46598;BME280;32318;48.858;8.252;2023-06-04T00:14:14;100215.69;;;16.87;52.39
46598;BME280;32318;48.858;8.252;2023-06-04T00:22:15;100208.19;;;16.75;52.77
46598;BME280;32318;48.858;8.252;2023-06-04T00:30:15;100209.44;;;16.73;52.94
46598;BME280;32318;48.858;8.252;2023-06-04T00:38:15;100197.81;;;16.45;53.20
46598;BME280;32318;48.858;8.252;2023-06-04T00:46:16;100204.84;;;16.46;52.54
46598;BME280;32318;48.858;8.252;2023-06-04T00:54:19;100217.63;;;16.31;52.60
46598;BME280;32318;48.858;8.252;2023-06-04T01:02:21;100213.88;;;16.19;52.83
46598;BME280;32318;48.858;8.252;2023-06-04T01:10:23;100217.34;;;16.06;53.04
46598;BME280;32318;48.858;8.252;2023-06-04T01:18:26;100222.06;;;15.97;52.77
46598;BME280;32318;48.858;8.252;2023-06-04T01:26:31;100217.44;;;15.84;52.43
46598;BME280;32318;48.858;8.252;2023-06-04T01:34:43;100217.69;;;15.61;53.63
46598;BME280;32318;48.858;8.252;2023-06-04T01:42:43;100210.47;;;15.61;52.94
46598;BME280;32318;48.858;8.252;2023-06-04T01:50:44;100213.75;;;15.57;52.50
46598;BME280;32318;48.858;8.252;2023-06-04T01:58:44;100224.69;;;15.48;51.76
46598;BME280;32318;48.858;8.252;2023-06-04T02:06:45;100214.22;;;15.32;51.89
46598;BME280;32318;48.858;8.252;2023-06-04T02:14:46;100216.13;;;15.10;52.16
46598;BME280;32318;48.858;8.252;2023-06-04T02:22:47;100209.75;;;15.17;51.29
46598;BME280;32318;48.858;8.252;2023-06-04T02:30:48;100227.22;;;15.00;51.45
46598;BME280;32318;48.858;8.252;2023-06-04T02:38:48;100217.34;;;14.85;51.67
46598;BME280;32318;48.858;8.252;2023-06-04T02:46:48;100221.72;;;14.86;51.10
46598;BME280;32318;48.858;8.252;2023-06-04T02:54:48;100224.53;;;14.78;51.07
46598;BME280;32318;48.858;8.252;2023-06-04T03:02:49;100228.81;;;14.72;51.19
46598;BME280;32318;48.858;8.252;2023-06-04T03:10:50;100232.75;;;14.55;51.07
46598;BME280;32318;48.858;8.252;2023-06-04T03:18:50;100227.81;;;14.58;51.25
46598;BME280;32318;48.858;8.252;2023-06-04T03:26:51;100239.53;;;14.51;51.22
46598;BME280;32318;48.858;8.252;2023-06-04T03:34:51;100242.78;;;14.46;51.28
46598;BME280;32318;48.858;8.252;2023-06-04T03:42:51;100246.78;;;14.35;51.71
46598;BME280;32318;48.858;8.252;2023-06-04T03:50:51;100240.88;;;14.25;51.80
46598;BME280;32318;48.858;8.252;2023-06-04T03:58:52;100247.72;;;14.27;51.45
46598;BME280;32318;48.858;8.252;2023-06-04T04:06:52;100254.13;;;14.26;51.15
46598;BME280;32318;48.858;8.252;2023-06-04T04:14:53;100246.72;;;14.28;51.23
46598;BME280;32318;48.858;8.252;2023-06-04T04:22:53;100248.19;;;14.31;51.17
46598;BME280;32318;48.858;8.252;2023-06-04T04:30:58;100262.41;;;14.47;50.88
46598;BME280;32318;48.858;8.252;2023-06-04T04:39:02;100259.59;;;14.55;50.57
46598;BME280;32318;48.858;8.252;2023-06-04T04:47:02;100275.06;;;14.53;50.96
46598;BME280;32318;48.858;8.252;2023-06-04T04:55:03;100272.38;;;14.68;50.59
46598;BME280;32318;48.858;8.252;2023-06-04T05:03:03;100264.59;;;14.73;50.60
46598;BME280;32318;48.858;8.252;2023-06-04T05:11:04;100273.94;;;14.77;50.59
46598;BME280;32318;48.858;8.252;2023-06-04T05:19:04;100270.34;;;14.92;50.76
46598;BME280;32318;48.858;8.252;2023-06-04T05:27:05;100275.81;;;15.27;50.40
46598;BME280;32318;48.858;8.252;2023-06-04T05:35:05;100285.31;;;15.79;49.95
46598;BME280;32318;48.858;8.252;2023-06-04T05:43:07;100287.13;;;16.42;47.93
46598;BME280;32318;48.858;8.252;2023-06-04T05:51:07;100279.56;;;16.80;47.50
46598;BME280;32318;48.858;8.252;2023-06-04T05:59:08;100292.22;;;16.86;46.81
46598;BME280;32318;48.858;8.252;2023-06-04T06:07:08;100309.75;;;16.48;47.09
46598;BME280;32318;48.858;8.252;2023-06-04T06:15:09;100305.28;;;16.27;48.16
46598;BME280;32318;48.858;8.252;2023-06-04T06:23:10;100303.00;;;16.86;47.58
46598;BME280;32318;48.858;8.252;2023-06-04T06:31:10;100299.97;;;17.29;46.33
46598;BME280;32318;48.858;8.252;2023-06-04T06:39:10;100313.69;;;17.54;46.39
46598;BME280;32318;48.858;8.252;2023-06-04T06:47:11;100320.91;;;18.08;45.99
46598;BME280;32318;48.858;8.252;2023-06-04T06:55:13;100328.50;;;18.38;45.51
46598;BME280;32318;48.858;8.252;2023-06-04T07:03:13;100328.03;;;18.54;44.49
46598;BME280;32318;48.858;8.252;2023-06-04T07:11:14;100333.72;;;18.78;44.41
46598;BME280;32318;48.858;8.252;2023-06-04T07:19:14;100347.41;;;18.96;44.24
46598;BME280;32318;48.858;8.252;2023-06-04T07:27:15;100344.41;;;19.11;43.62
46598;BME280;32318;48.858;8.252;2023-06-04T07:35:15;100353.19;;;19.32;42.46
46598;BME280;32318;48.858;8.252;2023-06-04T07:43:16;100350.59;;;19.44;42.62
46598;BME280;32318;48.858;8.252;2023-06-04T07:51:16;100339.25;;;19.79;42.41
46598;BME280;32318;48.858;8.252;2023-06-04T07:59:18;100347.53;;;19.66;42.92
46598;BME280;32318;48.858;8.252;2023-06-04T08:07:18;100345.53;;;19.54;42.88
46598;BME280;32318;48.858;8.252;2023-06-04T08:15:19;100339.50;;;19.52;42.75
46598;BME280;32318;48.858;8.252;2023-06-04T08:23:19;100339.94;;;20.00;42.38
46598;BME280;32318;48.858;8.252;2023-06-04T08:31:19;100338.59;;;20.28;42.02
46598;BME280;32318;48.858;8.252;2023-06-04T08:39:20;100338.88;;;20.57;41.64
46598;BME280;32318;48.858;8.252;2023-06-04T08:47:24;100351.19;;;20.90;41.33
46598;BME280;32318;48.858;8.252;2023-06-04T08:55:25;100347.63;;;21.20;41.03
46598;BME280;32318;48.858;8.252;2023-06-04T09:03:26;100360.84;;;21.58;40.24
46598;BME280;32318;48.858;8.252;2023-06-04T09:11:39;100356.72;;;21.80;40.64
46598;BME280;32318;48.858;8.252;2023-06-04T09:19:41;100353.44;;;22.01;39.90
46598;BME280;32318;48.858;8.252;2023-06-04T09:27:41;100358.94;;;22.30;39.22
46598;BME280;32318;48.858;8.252;2023-06-04T09:35:41;100353.31;;;22.61;38.65
46598;BME280;32318;48.858;8.252;2023-06-04T09:43:42;100350.84;;;23.17;36.90
46598;BME280;32318;48.858;8.252;2023-06-04T09:51:47;100345.84;;;23.26;36.68
46598;BME280;32318;48.858;8.252;2023-06-04T09:59:49;100342.16;;;23.49;36.21
46598;BME280;32318;48.858;8.252;2023-06-04T10:07:51;100343.94;;;23.60;35.94
46598;BME280;32318;48.858;8.252;2023-06-04T10:15:52;100328.84;;;23.70;36.38
46598;BME280;32318;48.858;8.252;2023-06-04T10:23:52;100330.72;;;23.86;35.23
46598;BME280;32318;48.858;8.252;2023-06-04T10:31:54;100329.44;;;24.11;34.77
46598;BME280;32318;48.858;8.252;2023-06-04T10:39:56;100335.66;;;24.28;35.04
46598;BME280;32318;48.858;8.252;2023-06-04T10:48:15;100328.38;;;24.56;33.57
46598;BME280;32318;48.858;8.252;2023-06-04T10:56:25;100331.06;;;24.73;33.69
46598;BME280;32318;48.858;8.252;2023-06-04T11:04:25;100329.50;;;24.83;33.31
46598;BME280;32318;48.858;8.252;2023-06-04T11:12:26;100322.41;;;24.82;33.77
46598;BME280;32318;48.858;8.252;2023-06-04T11:20:26;100326.28;;;25.18;32.17
46598;BME280;32318;48.858;8.252;2023-06-04T11:28:27;100332.94;;;25.28;32.97
46598;BME280;32318;48.858;8.252;2023-06-04T11:36:28;100321.97;;;25.23;32.51
46598;BME280;32318;48.858;8.252;2023-06-04T11:44:29;100309.84;;;25.46;31.91
46598;BME280;32318;48.858;8.252;2023-06-04T11:52:30;100314.31;;;25.52;31.66
46598;BME280;32318;48.858;8.252;2023-06-04T12:00:31;100307.56;;;25.65;30.54
46598;BME280;32318;48.858;8.252;2023-06-04T12:08:31;100306.47;;;25.66;31.03
46598;BME280;32318;48.858;8.252;2023-06-04T12:16:32;100296.56;;;25.60;31.03
46598;BME280;32318;48.858;8.252;2023-06-04T12:24:34;100299.72;;;25.84;29.89
46598;BME280;32318;48.858;8.252;2023-06-04T12:32:45;100300.63;;;26.00;29.46
46598;BME280;32318;48.858;8.252;2023-06-04T12:40:46;100303.19;;;26.17;29.56
46598;BME280;32318;48.858;8.252;2023-06-04T12:48:46;100298.56;;;26.18;28.64
46598;BME280;32318;48.858;8.252;2023-06-04T12:56:46;100304.75;;;26.08;28.54
46598;BME280;32318;48.858;8.252;2023-06-04T13:04:47;100299.91;;;26.15;27.76
46598;BME280;32318;48.858;8.252;2023-06-04T13:12:49;100281.81;;;26.09;27.67
46598;BME280;32318;48.858;8.252;2023-06-04T13:20:50;100296.34;;;26.14;27.30
46598;BME280;32318;48.858;8.252;2023-06-04T13:28:51;100308.44;;;26.24;27.68
46598;BME280;32318;48.858;8.252;2023-06-04T13:36:51;100291.16;;;26.13;27.43
46598;BME280;32318;48.858;8.252;2023-06-04T13:44:51;100300.00;;;26.36;27.55
46598;BME280;32318;48.858;8.252;2023-06-04T13:52:51;100293.44;;;26.37;26.94
46598;BME280;32318;48.858;8.252;2023-06-04T14:00:53;100279.50;;;26.43;27.66
46598;BME280;32318;48.858;8.252;2023-06-04T14:08:53;100277.59;;;26.54;26.58
46598;BME280;32318;48.858;8.252;2023-06-04T14:16:53;100265.81;;;26.54;27.26
46598;BME280;32318;48.858;8.252;2023-06-04T14:24:55;100271.03;;;26.55;27.28
46598;BME280;32318;48.858;8.252;2023-06-04T14:32:55;100271.31;;;26.59;27.54
46598;BME280;32318;48.858;8.252;2023-06-04T14:40:56;100266.91;;;26.48;26.86
46598;BME280;32318;48.858;8.252;2023-06-04T14:48:56;100259.72;;;26.31;26.81
46598;BME280;32318;48.858;8.252;2023-06-04T14:56:56;100254.56;;;26.40;27.46
46598;BME280;32318;48.858;8.252;2023-06-04T15:04:57;100249.91;;;26.40;26.87
46598;BME280;32318;48.858;8.252;2023-06-04T15:12:57;100250.44;;;26.32;26.11
46598;BME280;32318;48.858;8.252;2023-06-04T15:20:57;100250.41;;;26.22;26.28
46598;BME280;32318;48.858;8.252;2023-06-04T15:28:58;100244.66;;;26.18;25.89
46598;BME280;32318;48.858;8.252;2023-06-04T15:36:58;100250.03;;;26.03;26.21
46598;BME280;32318;48.858;8.252;2023-06-04T15:44:59;100252.22;;;26.00;25.41
46598;BME280;32318;48.858;8.252;2023-06-04T15:52:59;100245.31;;;25.82;24.18
46598;BME280;32318;48.858;8.252;2023-06-04T16:00:59;100233.81;;;25.80;24.79
46598;BME280;32318;48.858;8.252;2023-06-04T16:09:00;100228.34;;;25.80;23.63
46598;BME280;32318;48.858;8.252;2023-06-04T16:17:00;100220.41;;;25.79;23.38
46598;BME280;32318;48.858;8.252;2023-06-04T16:25:00;100216.25;;;25.66;24.08
46598;BME280;32318;48.858;8.252;2023-06-04T16:33:01;100212.09;;;25.58;23.77
46598;BME280;32318;48.858;8.252;2023-06-04T16:41:02;100217.75;;;25.46;24.59
46598;BME280;32318;48.858;8.252;2023-06-04T16:49:02;100215.59;;;25.48;24.42
46598;BME280;32318;48.858;8.252;2023-06-04T16:57:03;100216.63;;;25.42;24.10
46598;BME280;32318;48.858;8.252;2023-06-04T17:05:03;100220.53;;;25.14;24.46
46598;BME280;32318;48.858;8.252;2023-06-04T17:13:04;100207.72;;;25.19;24.08
46598;BME280;32318;48.858;8.252;2023-06-04T17:21:06;100208.69;;;25.03;24.08
46598;BME280;32318;48.858;8.252;2023-06-04T17:29:06;100210.22;;;24.88;24.96
46598;BME280;32318;48.858;8.252;2023-06-04T17:37:07;100209.56;;;24.76;24.58
46598;BME280;32318;48.858;8.252;2023-06-04T17:45:09;100215.50;;;24.68;24.66
46598;BME280;32318;48.858;8.252;2023-06-04T17:53:10;100219.34;;;24.44;25.25
46598;BME280;32318;48.858;8.252;2023-06-04T18:01:10;100221.75;;;24.41;25.14
46598;BME280;32318;48.858;8.252;2023-06-04T18:09:10;100220.16;;;24.18;25.63
46598;BME280;32318;48.858;8.252;2023-06-04T18:17:11;100228.84;;;23.92;26.41
46598;BME280;32318;48.858;8.252;2023-06-04T18:25:11;100235.13;;;23.76;26.13
46598;BME280;32318;48.858;8.252;2023-06-04T18:33:11;100232.41;;;23.54;26.39
46598;BME280;32318;48.858;8.252;2023-06-04T18:41:13;100232.44;;;23.37;26.64
46598;BME280;32318;48.858;8.252;2023-06-04T18:49:15;100237.53;;;23.16;27.18
46598;BME280;32318;48.858;8.252;2023-06-04T18:57:15;100230.09;;;22.94;27.77
46598;BME280;32318;48.858;8.252;2023-06-04T19:05:16;100232.72;;;22.72;28.08
46598;BME280;32318;48.858;8.252;2023-06-04T19:13:17;100236.84;;;22.46;28.68
46598;BME280;32318;48.858;8.252;2023-06-04T19:21:18;100244.28;;;22.21;29.36
46598;BME280;32318;48.858;8.252;2023-06-04T19:29:18;100252.25;;;21.99;29.61
46598;BME280;32318;48.858;8.252;2023-06-04T19:37:18;100262.91;;;21.77;30.42
46598;BME280;32318;48.858;8.252;2023-06-04T19:45:19;100275.19;;;21.56;30.97
46598;BME280;32318;48.858;8.252;2023-06-04T19:53:20;100270.22;;;21.29;31.49
46598;BME280;32318;48.858;8.252;2023-06-04T20:01:20;100285.66;;;21.16;31.75
46598;BME280;32318;48.858;8.252;2023-06-04T20:09:20;100295.16;;;20.95;32.27
46598;BME280;32318;48.858;8.252;2023-06-04T20:17:21;100296.19;;;20.82;32.70
46598;BME280;32318;48.858;8.252;2023-06-04T20:25:21;100308.94;;;20.82;33.47
46598;BME280;32318;48.858;8.252;2023-06-04T20:33:21;100315.09;;;20.71;34.03
46598;BME280;32318;48.858;8.252;2023-06-04T20:41:21;100307.00;;;20.52;34.76
46598;BME280;32318;48.858;8.252;2023-06-04T20:49:22;100312.25;;;20.35;34.85
46598;BME280;32318;48.858;8.252;2023-06-04T20:57:22;100310.13;;;20.18;35.58
46598;BME280;32318;48.858;8.252;2023-06-04T21:05:22;100321.25;;;19.92;36.16
46598;BME280;32318;48.858;8.252;2023-06-04T21:13:23;100325.34;;;19.75;36.09
46598;BME280;32318;48.858;8.252;2023-06-04T21:21:23;100326.34;;;19.56;36.88
46598;BME280;32318;48.858;8.252;2023-06-04T21:29:23;100331.50;;;19.39;37.15
46598;BME280;32318;48.858;8.252;2023-06-04T21:37:24;100334.81;;;19.09;38.24
46598;BME280;32318;48.858;8.252;2023-06-04T21:45:24;100336.22;;;18.79;38.38
46598;BME280;32318;48.858;8.252;2023-06-04T21:53:24;100334.47;;;18.53;39.13
46598;BME280;32318;48.858;8.252;2023-06-04T22:01:35;100328.69;;;18.43;39.43
46598;BME280;32318;48.858;8.252;2023-06-04T22:09:35;100333.94;;;18.31;39.78
46598;BME280;32318;48.858;8.252;2023-06-04T22:17:35;100318.38;;;18.13;40.15
46598;BME280;32318;48.858;8.252;2023-06-04T22:25:36;100316.53;;;18.00;40.58
46598;BME280;32318;48.858;8.252;2023-06-04T22:33:36;100319.84;;;17.95;40.63
46598;BME280;32318;48.858;8.252;2023-06-04T22:41:37;100326.50;;;17.93;40.49
46598;BME280;32318;48.858;8.252;2023-06-04T22:49:37;100337.34;;;17.79;41.60
46598;BME280;32318;48.858;8.252;2023-06-04T22:57:37;100340.25;;;17.64;41.01
46598;BME280;32318;48.858;8.252;2023-06-04T23:05:37;100337.78;;;17.43;41.97
46598;BME280;32318;48.858;8.252;2023-06-04T23:13:38;100343.19;;;17.43;41.76
46598;BME280;32318;48.858;8.252;2023-06-04T23:21:38;100333.41;;;17.42;41.85
46598;BME280;32318;48.858;8.252;2023-06-04T23:29:38;100332.34;;;17.29;42.22
46598;BME280;32318;48.858;8.252;2023-06-04T23:37:38;100324.47;;;17.07;43.01
46598;BME280;32318;48.858;8.252;2023-06-04T23:45:39;100328.38;;;17.05;43.38
46598;BME280;32318;48.858;8.252;2023-06-04T23:53:39;100332.75;;;17.06;43.68
